sensor_id;sensor_type;location;lat;lon;timestamp;P1;durP1;ratioP1;P2;durP2;ratioP2
16133;SDS011;8172;45.018;5.972;2023-04-25T00:01:34;4.43;;;1.93;;
16133;SDS011;8172;45.018;5.972;2023-04-25T00:06:43;3.50;;;1.67;;
16133;SDS011;8172;45.018;5.972;2023-04-25T00:11:52;2.57;;;1.50;;
16133;SDS011;8172;45.018;5.972;2023-04-25T00:17:01;2.23;;;1.70;;
16133;SDS011;8172;45.018;5.972;2023-04-25T00:22:09;3.90;;;1.97;;
16133;SDS011;8172;45.018;5.972;2023-04-25T00:27:17;3.30;;;1.60;;
16133;SDS011;8172;45.018;5.972;2023-04-25T00:32:30;2.13;;;1.60;;
16133;SDS011;8172;45.018;5.972;2023-04-25T00:37:42;2.37;;;1.70;;
16133;SDS011;8172;45.018;5.972;2023-04-25T00:42:51;3.43;;;1.73;;
16133;SDS011;8172;45.018;5.972;2023-04-25T00:48:01;2.50;;;1.80;;
16133;SDS011;8172;45.018;5.972;2023-04-25T00:53:13;2.37;;;1.70;;
16133;SDS011;8172;45.018;5.972;2023-04-25T00:58:21;4.33;;;2.03;;
16133;SDS011;8172;45.018;5.972;2023-04-25T01:03:31;3.00;;;2.10;;
16133;SDS011;8172;45.018;5.972;2023-04-25T01:08:41;3.40;;;1.90;;
16133;SDS011;8172;45.018;5.972;2023-04-25T01:13:50;2.27;;;2.00;;
16133;SDS011;8172;45.018;5.972;2023-04-25T01:18:57;4.87;;;2.20;;
16133;SDS011;8172;45.018;5.972;2023-04-25T01:24:06;2.93;;;2.30;;
16133;SDS011;8172;45.018;5.972;2023-04-25T01:29:15;3.07;;;2.03;;
16133;SDS011;8172;45.018;5.972;2023-04-25T01:34:24;3.83;;;2.10;;
16133;SDS011;8172;45.018;5.972;2023-04-25T01:39:35;3.40;;;2.10;;
16133;SDS011;8172;45.018;5.972;2023-04-25T01:44:45;4.07;;;2.50;;
16133;SDS011;8172;45.018;5.972;2023-04-25T01:49:52;2.73;;;2.30;;
16133;SDS011;8172;45.018;5.972;2023-04-25T01:55:01;4.30;;;2.33;;
16133;SDS011;8172;45.018;5.972;2023-04-25T02:00:12;4.53;;;2.07;;
16133;SDS011;8172;45.018;5.972;2023-04-25T02:05:20;6.40;;;2.30;;
16133;SDS011;8172;45.018;5.972;2023-04-25T02:10:28;4.53;;;2.10;;
16133;SDS011;8172;45.018;5.972;2023-04-25T02:15:37;3.83;;;2.30;;
16133;SDS011;8172;45.018;5.972;2023-04-25T02:20:47;4.17;;;2.20;;
16133;SDS011;8172;45.018;5.972;2023-04-25T02:25:55;5.07;;;2.40;;
16133;SDS011;8172;45.018;5.972;2023-04-25T02:31:04;5.27;;;2.80;;
16133;SDS011;8172;45.018;5.972;2023-04-25T02:36:13;3.10;;;2.30;;
16133;SDS011;8172;45.018;5.972;2023-04-25T02:41:21;3.90;;;2.50;;
16133;SDS011;8172;45.018;5.972;2023-04-25T02:46:29;2.70;;;2.20;;
16133;SDS011;8172;45.018;5.972;2023-04-25T02:51:38;3.47;;;2.47;;
16133;SDS011;8172;45.018;5.972;2023-04-25T02:56:47;3.27;;;1.90;;
16133;SDS011;8172;45.018;5.972;2023-04-25T03:01:56;3.27;;;1.97;;
16133;SDS011;8172;45.018;5.972;2023-04-25T03:07:05;4.27;;;2.20;;
16133;SDS011;8172;45.018;5.972;2023-04-25T03:12:17;4.03;;;2.20;;
16133;SDS011;8172;45.018;5.972;2023-04-25T03:17:26;4.33;;;2.10;;
16133;SDS011;8172;45.018;5.972;2023-04-25T03:22:35;3.50;;;2.23;;
16133;SDS011;8172;45.018;5.972;2023-04-25T03:27:47;2.90;;;2.10;;
16133;SDS011;8172;45.018;5.972;2023-04-25T03:32:54;4.03;;;2.20;;
16133;SDS011;8172;45.018;5.972;2023-04-25T03:38:02;5.00;;;2.20;;
16133;SDS011;8172;45.018;5.972;2023-04-25T03:43:11;5.00;;;2.20;;
16133;SDS011;8172;45.018;5.972;2023-04-25T03:48:22;3.30;;;2.00;;
16133;SDS011;8172;45.018;5.972;2023-04-25T03:53:32;4.80;;;2.40;;
16133;SDS011;8172;45.018;5.972;2023-04-25T03:58:41;3.97;;;2.20;;
16133;SDS011;8172;45.018;5.972;2023-04-25T04:03:49;6.17;;;2.60;;
16133;SDS011;8172;45.018;5.972;2023-04-25T04:08:59;4.63;;;2.43;;
16133;SDS011;8172;45.018;5.972;2023-04-25T04:14:08;3.33;;;2.17;;
16133;SDS011;8172;45.018;5.972;2023-04-25T04:19:18;3.43;;;2.27;;
16133;SDS011;8172;45.018;5.972;2023-04-25T04:24:28;3.30;;;1.90;;
16133;SDS011;8172;45.018;5.972;2023-04-25T04:29:40;4.73;;;2.40;;
16133;SDS011;8172;45.018;5.972;2023-04-25T04:34:54;3.23;;;2.10;;
16133;SDS011;8172;45.018;5.972;2023-04-25T04:40:04;3.53;;;2.40;;
16133;SDS011;8172;45.018;5.972;2023-04-25T04:45:14;4.33;;;2.30;;
16133;SDS011;8172;45.018;5.972;2023-04-25T04:50:25;3.77;;;2.37;;
16133;SDS011;8172;45.018;5.972;2023-04-25T04:55:34;3.23;;;2.40;;
16133;SDS011;8172;45.018;5.972;2023-04-25T05:00:44;3.97;;;2.50;;
16133;SDS011;8172;45.018;5.972;2023-04-25T05:05:54;5.60;;;2.33;;
16133;SDS011;8172;45.018;5.972;2023-04-25T05:11:01;3.47;;;2.33;;
16133;SDS011;8172;45.018;5.972;2023-04-25T05:16:12;4.93;;;2.50;;
16133;SDS011;8172;45.018;5.972;2023-04-25T05:21:23;4.27;;;2.10;;
16133;SDS011;8172;45.018;5.972;2023-04-25T05:26:35;3.57;;;2.27;;
16133;SDS011;8172;45.018;5.972;2023-04-25T05:31:45;3.87;;;2.30;;
16133;SDS011;8172;45.018;5.972;2023-04-25T05:36:58;3.33;;;2.13;;
16133;SDS011;8172;45.018;5.972;2023-04-25T05:42:09;5.03;;;2.57;;
16133;SDS011;8172;45.018;5.972;2023-04-25T05:47:19;4.43;;;2.67;;
16133;SDS011;8172;45.018;5.972;2023-04-25T05:52:28;3.93;;;2.60;;
16133;SDS011;8172;45.018;5.972;2023-04-25T05:57:38;7.17;;;3.00;;
16133;SDS011;8172;45.018;5.972;2023-04-25T06:02:48;6.67;;;3.40;;
16133;SDS011;8172;45.018;5.972;2023-04-25T06:08:00;4.20;;;3.00;;
16133;SDS011;8172;45.018;5.972;2023-04-25T06:13:11;4.17;;;3.10;;
16133;SDS011;8172;45.018;5.972;2023-04-25T06:18:20;4.57;;;3.20;;
16133;SDS011;8172;45.018;5.972;2023-04-25T06:23:28;7.90;;;4.33;;
16133;SDS011;8172;45.018;5.972;2023-04-25T06:28:39;4.50;;;2.73;;
16133;SDS011;8172;45.018;5.972;2023-04-25T06:33:49;5.93;;;3.40;;
16133;SDS011;8172;45.018;5.972;2023-04-25T06:38:59;7.13;;;3.87;;
16133;SDS011;8172;45.018;5.972;2023-04-25T06:44:09;8.93;;;3.47;;
16133;SDS011;8172;45.018;5.972;2023-04-25T06:49:19;5.23;;;3.03;;
16133;SDS011;8172;45.018;5.972;2023-04-25T06:54:28;7.43;;;3.77;;
16133;SDS011;8172;45.018;5.972;2023-04-25T06:59:37;3.93;;;2.90;;
16133;SDS011;8172;45.018;5.972;2023-04-25T07:04:45;6.60;;;2.50;;
16133;SDS011;8172;45.018;5.972;2023-04-25T07:09:54;3.83;;;2.20;;
16133;SDS011;8172;45.018;5.972;2023-04-25T07:15:04;3.70;;;2.03;;
16133;SDS011;8172;45.018;5.972;2023-04-25T07:20:16;4.17;;;2.57;;
16133;SDS011;8172;45.018;5.972;2023-04-25T07:25:24;4.30;;;2.67;;
16133;SDS011;8172;45.018;5.972;2023-04-25T07:30:34;2.90;;;2.07;;
16133;SDS011;8172;45.018;5.972;2023-04-25T07:35:42;5.43;;;2.17;;
16133;SDS011;8172;45.018;5.972;2023-04-25T07:40:51;3.30;;;1.90;;
16133;SDS011;8172;45.018;5.972;2023-04-25T07:45:59;3.83;;;2.10;;
16133;SDS011;8172;45.018;5.972;2023-04-25T07:51:07;3.83;;;1.93;;
16133;SDS011;8172;45.018;5.972;2023-04-25T07:56:18;3.23;;;1.80;;
16133;SDS011;8172;45.018;5.972;2023-04-25T08:01:25;2.87;;;2.00;;
16133;SDS011;8172;45.018;5.972;2023-04-25T08:06:35;2.67;;;1.90;;
16133;SDS011;8172;45.018;5.972;2023-04-25T08:11:45;3.70;;;2.20;;
16133;SDS011;8172;45.018;5.972;2023-04-25T08:16:54;6.47;;;3.63;;
16133;SDS011;8172;45.018;5.972;2023-04-25T08:22:03;3.43;;;2.00;;
16133;SDS011;8172;45.018;5.972;2023-04-25T08:27:12;2.37;;;2.00;;
16133;SDS011;8172;45.018;5.972;2023-04-25T08:32:21;3.57;;;1.80;;
16133;SDS011;8172;45.018;5.972;2023-04-25T08:37:33;2.43;;;1.60;;
16133;SDS011;8172;45.018;5.972;2023-04-25T08:42:43;1.40;;;1.30;;
16133;SDS011;8172;45.018;5.972;2023-04-25T08:47:53;2.13;;;1.40;;
16133;SDS011;8172;45.018;5.972;2023-04-25T08:53:03;2.47;;;1.60;;
16133;SDS011;8172;45.018;5.972;2023-04-25T08:58:13;2.60;;;1.50;;
16133;SDS011;8172;45.018;5.972;2023-04-25T09:03:23;3.93;;;1.40;;
16133;SDS011;8172;45.018;5.972;2023-04-25T09:08:34;2.43;;;1.40;;
16133;SDS011;8172;45.018;5.972;2023-04-25T09:13:45;1.73;;;1.23;;
16133;SDS011;8172;45.018;5.972;2023-04-25T09:18:57;2.30;;;1.30;;
16133;SDS011;8172;45.018;5.972;2023-04-25T09:24:09;3.60;;;1.50;;
16133;SDS011;8172;45.018;5.972;2023-04-25T09:29:17;2.70;;;1.37;;
16133;SDS011;8172;45.018;5.972;2023-04-25T09:34:27;1.60;;;1.47;;
16133;SDS011;8172;45.018;5.972;2023-04-25T09:39:37;3.60;;;1.20;;
16133;SDS011;8172;45.018;5.972;2023-04-25T09:44:47;1.27;;;1.13;;
16133;SDS011;8172;45.018;5.972;2023-04-25T09:49:56;1.30;;;1.20;;
16133;SDS011;8172;45.018;5.972;2023-04-25T09:55:06;1.90;;;1.37;;
16133;SDS011;8172;45.018;5.972;2023-04-25T10:00:14;2.57;;;1.40;;
16133;SDS011;8172;45.018;5.972;2023-04-25T10:05:23;3.53;;;1.43;;
16133;SDS011;8172;45.018;5.972;2023-04-25T10:10:33;2.57;;;1.80;;
16133;SDS011;8172;45.018;5.972;2023-04-25T10:15:46;3.43;;;1.90;;
16133;SDS011;8172;45.018;5.972;2023-04-25T10:21:00;4.93;;;1.80;;
16133;SDS011;8172;45.018;5.972;2023-04-25T10:26:12;5.40;;;2.03;;
16133;SDS011;8172;45.018;5.972;2023-04-25T10:31:20;3.07;;;2.20;;
16133;SDS011;8172;45.018;5.972;2023-04-25T10:36:31;3.07;;;2.10;;
16133;SDS011;8172;45.018;5.972;2023-04-25T10:46:49;2.87;;;2.07;;
16133;SDS011;8172;45.018;5.972;2023-04-25T11:02:23;3.33;;;2.00;;
16133;SDS011;8172;45.018;5.972;2023-04-25T11:07:37;2.87;;;1.93;;
16133;SDS011;8172;45.018;5.972;2023-04-25T11:12:50;2.57;;;1.77;;
16133;SDS011;8172;45.018;5.972;2023-04-25T11:18:01;3.13;;;1.90;;
16133;SDS011;8172;45.018;5.972;2023-04-25T11:23:10;2.73;;;1.90;;
16133;SDS011;8172;45.018;5.972;2023-04-25T11:33:29;4.17;;;1.97;;
16133;SDS011;8172;45.018;5.972;2023-04-25T11:38:37;4.63;;;1.90;;
16133;SDS011;8172;45.018;5.972;2023-04-25T11:43:46;2.27;;;1.70;;
16133;SDS011;8172;45.018;5.972;2023-04-25T11:48:56;3.43;;;1.80;;
16133;SDS011;8172;45.018;5.972;2023-04-25T11:54:04;3.83;;;2.00;;
16133;SDS011;8172;45.018;5.972;2023-04-25T11:59:13;2.30;;;1.90;;
16133;SDS011;8172;45.018;5.972;2023-04-25T12:04:23;1.87;;;1.57;;
16133;SDS011;8172;45.018;5.972;2023-04-25T12:09:32;3.87;;;1.77;;
16133;SDS011;8172;45.018;5.972;2023-04-25T12:14:41;2.43;;;1.90;;
16133;SDS011;8172;45.018;5.972;2023-04-25T12:19:52;4.27;;;1.93;;
16133;SDS011;8172;45.018;5.972;2023-04-25T12:25:01;2.93;;;1.80;;
16133;SDS011;8172;45.018;5.972;2023-04-25T12:30:10;1.90;;;1.70;;
16133;SDS011;8172;45.018;5.972;2023-04-25T12:35:18;3.30;;;2.30;;
16133;SDS011;8172;45.018;5.972;2023-04-25T12:40:27;4.07;;;2.20;;
16133;SDS011;8172;45.018;5.972;2023-04-25T12:45:36;2.20;;;1.80;;
16133;SDS011;8172;45.018;5.972;2023-04-25T12:50:45;3.53;;;2.13;;
16133;SDS011;8172;45.018;5.972;2023-04-25T12:55:54;4.50;;;2.00;;
16133;SDS011;8172;45.018;5.972;2023-04-25T13:01:03;2.60;;;1.70;;
16133;SDS011;8172;45.018;5.972;2023-04-25T13:06:11;2.83;;;2.10;;
16133;SDS011;8172;45.018;5.972;2023-04-25T13:11:20;3.37;;;1.80;;
16133;SDS011;8172;45.018;5.972;2023-04-25T13:16:28;6.00;;;2.13;;
16133;SDS011;8172;45.018;5.972;2023-04-25T13:21:36;3.10;;;1.93;;
16133;SDS011;8172;45.018;5.972;2023-04-25T13:26:44;5.27;;;2.00;;
16133;SDS011;8172;45.018;5.972;2023-04-25T13:31:52;2.17;;;1.90;;
16133;SDS011;8172;45.018;5.972;2023-04-25T13:37:01;4.53;;;2.10;;
16133;SDS011;8172;45.018;5.972;2023-04-25T13:42:10;2.67;;;1.90;;
16133;SDS011;8172;45.018;5.972;2023-04-25T13:47:20;2.73;;;1.70;;
16133;SDS011;8172;45.018;5.972;2023-04-25T13:52:30;3.80;;;1.77;;
16133;SDS011;8172;45.018;5.972;2023-04-25T13:57:39;3.03;;;1.93;;
16133;SDS011;8172;45.018;5.972;2023-04-25T14:02:49;4.17;;;2.10;;
16133;SDS011;8172;45.018;5.972;2023-04-25T14:07:58;3.07;;;1.93;;
16133;SDS011;8172;45.018;5.972;2023-04-25T14:13:08;2.93;;;1.90;;
16133;SDS011;8172;45.018;5.972;2023-04-25T14:18:17;3.20;;;1.97;;
16133;SDS011;8172;45.018;5.972;2023-04-25T14:23:25;3.03;;;2.00;;
16133;SDS011;8172;45.018;5.972;2023-04-25T14:28:34;4.27;;;2.10;;
16133;SDS011;8172;45.018;5.972;2023-04-25T14:33:42;4.77;;;1.93;;
16133;SDS011;8172;45.018;5.972;2023-04-25T14:38:51;2.97;;;2.00;;
16133;SDS011;8172;45.018;5.972;2023-04-25T14:44:01;3.77;;;1.90;;
16133;SDS011;8172;45.018;5.972;2023-04-25T14:49:08;3.10;;;2.10;;
16133;SDS011;8172;45.018;5.972;2023-04-25T14:54:16;2.73;;;1.90;;
16133;SDS011;8172;45.018;5.972;2023-04-25T14:59:24;4.87;;;2.00;;
16133;SDS011;8172;45.018;5.972;2023-04-25T15:04:34;2.30;;;1.90;;
16133;SDS011;8172;45.018;5.972;2023-04-25T15:09:43;3.30;;;2.17;;
16133;SDS011;8172;45.018;5.972;2023-04-25T15:14:53;3.40;;;1.97;;
16133;SDS011;8172;45.018;5.972;2023-04-25T15:20:02;4.13;;;1.80;;
16133;SDS011;8172;45.018;5.972;2023-04-25T15:25:14;3.57;;;1.87;;
16133;SDS011;8172;45.018;5.972;2023-04-25T15:30:24;2.60;;;1.90;;
16133;SDS011;8172;45.018;5.972;2023-04-25T15:35:32;3.30;;;2.00;;
16133;SDS011;8172;45.018;5.972;2023-04-25T15:40:41;2.27;;;1.80;;
16133;SDS011;8172;45.018;5.972;2023-04-25T15:45:49;2.20;;;1.80;;
16133;SDS011;8172;45.018;5.972;2023-04-25T15:50:58;4.63;;;1.77;;
16133;SDS011;8172;45.018;5.972;2023-04-25T15:56:07;2.50;;;2.10;;
16133;SDS011;8172;45.018;5.972;2023-04-25T16:01:15;4.13;;;1.80;;
16133;SDS011;8172;45.018;5.972;2023-04-25T16:06:24;2.13;;;1.93;;
16133;SDS011;8172;45.018;5.972;2023-04-25T16:11:32;4.23;;;2.20;;
16133;SDS011;8172;45.018;5.972;2023-04-25T16:16:42;2.73;;;2.00;;
16133;SDS011;8172;45.018;5.972;2023-04-25T16:21:51;3.47;;;1.90;;
16133;SDS011;8172;45.018;5.972;2023-04-25T16:27:00;5.07;;;2.00;;
16133;SDS011;8172;45.018;5.972;2023-04-25T16:32:09;3.70;;;2.00;;
16133;SDS011;8172;45.018;5.972;2023-04-25T16:37:23;5.03;;;2.27;;
16133;SDS011;8172;45.018;5.972;2023-04-25T16:42:32;3.57;;;2.10;;
16133;SDS011;8172;45.018;5.972;2023-04-25T16:47:41;2.83;;;2.10;;
16133;SDS011;8172;45.018;5.972;2023-04-25T16:52:50;3.17;;;1.60;;
16133;SDS011;8172;45.018;5.972;2023-04-25T16:57:59;2.27;;;1.80;;
16133;SDS011;8172;45.018;5.972;2023-04-25T17:03:07;3.53;;;1.60;;
16133;SDS011;8172;45.018;5.972;2023-04-25T17:08:16;2.70;;;1.80;;
16133;SDS011;8172;45.018;5.972;2023-04-25T17:13:23;2.37;;;1.70;;
16133;SDS011;8172;45.018;5.972;2023-04-25T17:18:34;1.80;;;1.50;;
16133;SDS011;8172;45.018;5.972;2023-04-25T17:23:43;3.33;;;1.73;;
16133;SDS011;8172;45.018;5.972;2023-04-25T17:28:52;2.70;;;2.10;;
16133;SDS011;8172;45.018;5.972;2023-04-25T17:34:00;4.40;;;1.70;;
16133;SDS011;8172;45.018;5.972;2023-04-25T17:39:10;2.53;;;1.70;;
16133;SDS011;8172;45.018;5.972;2023-04-25T17:44:23;4.63;;;2.40;;
16133;SDS011;8172;45.018;5.972;2023-04-25T17:49:31;4.03;;;2.50;;
16133;SDS011;8172;45.018;5.972;2023-04-25T17:54:40;15.20;;;7.83;;
16133;SDS011;8172;45.018;5.972;2023-04-25T17:59:49;5.60;;;2.60;;
16133;SDS011;8172;45.018;5.972;2023-04-25T18:04:59;4.40;;;1.93;;
16133;SDS011;8172;45.018;5.972;2023-04-25T18:10:09;5.97;;;1.90;;
16133;SDS011;8172;45.018;5.972;2023-04-25T18:15:17;2.73;;;1.93;;
16133;SDS011;8172;45.018;5.972;2023-04-25T18:20:27;2.27;;;1.70;;
16133;SDS011;8172;45.018;5.972;2023-04-25T18:25:35;3.10;;;2.00;;
16133;SDS011;8172;45.018;5.972;2023-04-25T18:30:44;2.47;;;1.70;;
16133;SDS011;8172;45.018;5.972;2023-04-25T18:35:53;4.17;;;2.37;;
16133;SDS011;8172;45.018;5.972;2023-04-25T18:41:04;3.13;;;2.00;;
16133;SDS011;8172;45.018;5.972;2023-04-25T18:46:13;2.70;;;2.03;;
16133;SDS011;8172;45.018;5.972;2023-04-25T18:51:22;3.07;;;2.10;;
16133;SDS011;8172;45.018;5.972;2023-04-25T18:56:34;2.87;;;1.90;;
16133;SDS011;8172;45.018;5.972;2023-04-25T19:01:48;3.23;;;1.77;;
16133;SDS011;8172;45.018;5.972;2023-04-25T19:06:57;5.50;;;2.07;;
16133;SDS011;8172;45.018;5.972;2023-04-25T19:12:06;4.77;;;2.10;;
16133;SDS011;8172;45.018;5.972;2023-04-25T19:17:14;10.03;;;5.83;;
16133;SDS011;8172;45.018;5.972;2023-04-25T19:22:23;15.70;;;9.23;;
16133;SDS011;8172;45.018;5.972;2023-04-25T19:27:32;27.87;;;14.07;;
16133;SDS011;8172;45.018;5.972;2023-04-25T19:32:39;28.83;;;15.93;;
16133;SDS011;8172;45.018;5.972;2023-04-25T19:37:48;16.63;;;7.73;;
16133;SDS011;8172;45.018;5.972;2023-04-25T19:42:56;18.37;;;9.63;;
16133;SDS011;8172;45.018;5.972;2023-04-25T19:48:04;19.33;;;8.10;;
16133;SDS011;8172;45.018;5.972;2023-04-25T19:53:14;7.07;;;3.20;;
16133;SDS011;8172;45.018;5.972;2023-04-25T19:58:23;17.10;;;9.87;;
16133;SDS011;8172;45.018;5.972;2023-04-25T20:03:32;21.20;;;12.30;;
16133;SDS011;8172;45.018;5.972;2023-04-25T20:08:40;70.63;;;30.33;;
16133;SDS011;8172;45.018;5.972;2023-04-25T20:13:48;29.50;;;12.47;;
16133;SDS011;8172;45.018;5.972;2023-04-25T20:18:57;32.63;;;14.80;;
16133;SDS011;8172;45.018;5.972;2023-04-25T20:24:06;15.47;;;7.50;;
16133;SDS011;8172;45.018;5.972;2023-04-25T20:29:17;16.10;;;8.80;;
16133;SDS011;8172;45.018;5.972;2023-04-25T20:34:25;6.33;;;3.83;;
16133;SDS011;8172;45.018;5.972;2023-04-25T20:39:35;4.77;;;2.33;;
16133;SDS011;8172;45.018;5.972;2023-04-25T20:44:43;4.93;;;3.00;;
16133;SDS011;8172;45.018;5.972;2023-04-25T20:49:51;15.17;;;6.40;;
16133;SDS011;8172;45.018;5.972;2023-04-25T20:55:00;15.17;;;7.90;;
16133;SDS011;8172;45.018;5.972;2023-04-25T21:00:09;7.37;;;4.17;;
16133;SDS011;8172;45.018;5.972;2023-04-25T21:05:20;7.27;;;4.00;;
16133;SDS011;8172;45.018;5.972;2023-04-25T21:10:28;7.97;;;4.20;;
16133;SDS011;8172;45.018;5.972;2023-04-25T21:15:36;7.37;;;4.30;;
16133;SDS011;8172;45.018;5.972;2023-04-25T21:20:45;5.53;;;3.60;;
16133;SDS011;8172;45.018;5.972;2023-04-25T21:25:54;12.33;;;6.40;;
16133;SDS011;8172;45.018;5.972;2023-04-25T21:31:02;6.80;;;2.80;;
16133;SDS011;8172;45.018;5.972;2023-04-25T21:36:10;4.40;;;2.37;;
16133;SDS011;8172;45.018;5.972;2023-04-25T21:41:18;6.63;;;3.23;;
16133;SDS011;8172;45.018;5.972;2023-04-25T21:46:27;4.87;;;2.63;;
16133;SDS011;8172;45.018;5.972;2023-04-25T21:51:35;4.40;;;2.80;;
16133;SDS011;8172;45.018;5.972;2023-04-25T21:56:43;5.67;;;2.77;;
16133;SDS011;8172;45.018;5.972;2023-04-25T22:01:52;5.03;;;2.13;;
16133;SDS011;8172;45.018;5.972;2023-04-25T22:07:02;2.60;;;1.90;;
16133;SDS011;8172;45.018;5.972;2023-04-25T22:12:15;3.43;;;1.97;;
16133;SDS011;8172;45.018;5.972;2023-04-25T22:17:23;3.60;;;2.03;;
16133;SDS011;8172;45.018;5.972;2023-04-25T22:22:34;4.73;;;2.27;;
16133;SDS011;8172;45.018;5.972;2023-04-25T22:27:42;3.57;;;2.07;;
16133;SDS011;8172;45.018;5.972;2023-04-25T22:32:51;3.73;;;2.30;;
16133;SDS011;8172;45.018;5.972;2023-04-25T22:37:59;4.77;;;2.07;;
16133;SDS011;8172;45.018;5.972;2023-04-25T22:43:08;3.33;;;2.23;;
16133;SDS011;8172;45.018;5.972;2023-04-25T22:48:17;2.17;;;1.90;;
16133;SDS011;8172;45.018;5.972;2023-04-25T22:53:25;3.63;;;2.27;;
16133;SDS011;8172;45.018;5.972;2023-04-25T22:58:34;4.13;;;2.10;;
16133;SDS011;8172;45.018;5.972;2023-04-25T23:03:43;4.40;;;2.00;;
16133;SDS011;8172;45.018;5.972;2023-04-25T23:08:51;4.57;;;2.40;;
16133;SDS011;8172;45.018;5.972;2023-04-25T23:14:00;2.40;;;1.83;;
16133;SDS011;8172;45.018;5.972;2023-04-25T23:19:09;4.93;;;2.10;;
16133;SDS011;8172;45.018;5.972;2023-04-25T23:24:17;2.67;;;2.00;;
16133;SDS011;8172;45.018;5.972;2023-04-25T23:29:26;5.00;;;2.20;;
16133;SDS011;8172;45.018;5.972;2023-04-25T23:34:34;6.57;;;2.47;;
16133;SDS011;8172;45.018;5.972;2023-04-25T23:44:54;3.13;;;2.17;;
16133;SDS011;8172;45.018;5.972;2023-04-25T23:50:02;2.77;;;2.10;;
16133;SDS011;8172;45.018;5.972;2023-04-25T23:55:12;3.27;;;2.10;;
